createdAt,value
2022-12-09T00:01:30.811Z,37.03
2022-12-09T00:04:00.511Z,41.87
2022-12-09T00:06:31.870Z,44.47
2022-12-09T00:09:03.791Z,43.30
2022-12-09T00:11:33.362Z,44.17
2022-12-09T00:14:02.847Z,47.10
2022-12-09T00:16:32.321Z,51.37
2022-12-09T00:19:01.578Z,48.57
2022-12-09T00:21:32.362Z,54.43
2022-12-09T00:24:05.069Z,58.10
2022-12-09T00:26:34.538Z,68.13
2022-12-09T00:29:03.596Z,68.00
2022-12-09T00:31:34.786Z,64.63
2022-12-09T00:34:06.112Z,64.50
2022-12-09T00:36:35.899Z,61.90
2022-12-09T00:39:07.166Z,62.37
2022-12-09T00:41:36.717Z,62.27
2022-12-09T00:44:06.017Z,58.77
2022-12-09T00:46:35.338Z,52.97
2022-12-09T00:49:05.601Z,55.70
2022-12-09T00:51:35.137Z,52.70
2022-12-09T00:54:06.098Z,51.03
2022-12-09T00:56:35.633Z,48.37
2022-12-09T00:59:05.046Z,39.30
2022-12-09T01:01:33.946Z,34.10
2022-12-09T01:04:03.722Z,28.57
2022-12-09T01:06:32.851Z,23.90
2022-12-09T01:09:03.116Z,22.53
2022-12-09T01:11:34.008Z,22.47
2022-12-09T01:14:04.617Z,20.40
2022-12-09T01:16:35.847Z,20.13
2022-12-09T01:19:07.040Z,20.50
2022-12-09T01:21:36.428Z,20.53
2022-12-09T01:24:10.223Z,21.30
2022-12-09T01:26:41.630Z,20.27
2022-12-09T01:29:10.947Z,19.97
2022-12-09T01:31:40.000Z,22.07
2022-12-09T01:34:08.919Z,20.77
2022-12-09T01:36:37.636Z,21.83
2022-12-09T01:39:07.583Z,22.20
2022-12-09T01:41:37.696Z,20.87
2022-12-09T01:44:14.223Z,21.80
2022-12-09T01:46:43.604Z,21.17
2022-12-09T01:49:18.335Z,21.53
2022-12-09T01:51:53.350Z,22.70
2022-12-09T01:54:22.202Z,21.17
2022-12-09T01:56:51.619Z,21.90
2022-12-09T01:59:22.934Z,23.53
2022-12-09T02:01:58.155Z,24.30
2022-12-09T02:04:29.949Z,21.23
2022-12-09T02:07:01.604Z,23.83
2022-12-09T02:09:30.876Z,21.70
2022-12-09T02:12:11.429Z,21.50
2022-12-09T02:14:46.332Z,22.73
2022-12-09T02:17:27.064Z,21.97
2022-12-09T02:20:07.210Z,22.20
2022-12-09T02:22:41.745Z,21.13
2022-12-09T02:25:25.101Z,22.27
2022-12-09T02:28:14.254Z,22.67
2022-12-09T02:30:53.588Z,22.57
2022-12-09T02:33:41.338Z,24.60
2022-12-09T02:36:18.422Z,23.73
2022-12-09T02:38:51.688Z,23.73
2022-12-09T02:41:24.971Z,23.60
2022-12-09T02:44:09.591Z,24.20
2022-12-09T02:46:39.696Z,23.77
2022-12-09T02:49:12.385Z,23.50
2022-12-09T02:51:47.039Z,23.13
2022-12-09T02:54:19.571Z,25.00
2022-12-09T02:56:56.018Z,24.83
2022-12-09T02:59:26.317Z,24.13
2022-12-09T03:02:17.174Z,24.27
2022-12-09T03:04:58.417Z,23.77
2022-12-09T03:07:43.436Z,24.93
2022-12-09T03:10:18.825Z,23.77
2022-12-09T03:12:53.757Z,24.50
2022-12-09T03:15:29.079Z,24.17
2022-12-09T03:18:01.752Z,24.77
2022-12-09T03:20:34.338Z,23.67
2022-12-09T03:23:06.479Z,23.83
2022-12-09T03:25:40.695Z,23.50
2022-12-09T03:28:15.749Z,22.47
2022-12-09T03:30:47.066Z,23.13
2022-12-09T03:33:19.653Z,22.33
2022-12-09T03:35:54.708Z,23.17
2022-12-09T03:38:29.921Z,23.73
2022-12-09T03:41:09.208Z,24.03
2022-12-09T03:43:44.642Z,24.37
2022-12-09T03:46:13.892Z,23.33
2022-12-09T03:48:43.535Z,22.90
2022-12-09T03:51:17.682Z,23.93
2022-12-09T03:53:53.362Z,23.97
2022-12-09T03:56:28.601Z,22.57
2022-12-09T03:59:02.178Z,23.57
2022-12-09T04:01:32.996Z,22.97
2022-12-09T04:04:02.481Z,22.83
2022-12-09T04:06:31.659Z,22.87
2022-12-09T04:09:03.222Z,24.70
2022-12-09T04:11:32.600Z,23.40
2022-12-09T04:14:01.918Z,24.00
2022-12-09T04:16:31.154Z,23.73
2022-12-09T04:19:00.071Z,22.77
2022-12-09T04:21:29.525Z,22.60
2022-12-09T04:23:58.408Z,23.83
2022-12-09T04:26:30.441Z,21.63
2022-12-09T04:29:01.916Z,23.43
2022-12-09T04:31:31.046Z,24.40
2022-12-09T04:34:08.369Z,22.67
2022-12-09T04:36:39.579Z,23.90
2022-12-09T04:39:08.930Z,22.93
2022-12-09T04:41:40.536Z,22.80
2022-12-09T04:44:10.120Z,23.70
2022-12-09T04:46:40.388Z,22.97
2022-12-09T04:49:09.619Z,23.60
2022-12-09T04:51:40.140Z,24.20
2022-12-09T04:54:14.664Z,23.20
2022-12-09T04:56:45.197Z,23.33
2022-12-09T04:59:16.263Z,24.27
2022-12-09T05:01:45.813Z,23.70
2022-12-09T05:04:15.461Z,24.20
2022-12-09T05:06:44.934Z,23.07
2022-12-09T05:09:15.187Z,23.10
2022-12-09T05:11:46.326Z,22.80
2022-12-09T05:14:15.898Z,22.10
2022-12-09T05:16:45.444Z,22.30
2022-12-09T05:19:14.530Z,22.50
2022-12-09T05:21:44.262Z,24.57
2022-12-09T05:24:13.660Z,21.70
2022-12-09T05:26:43.029Z,22.40
2022-12-09T05:29:17.978Z,22.77
2022-12-09T05:31:52.430Z,24.97
2022-12-09T05:34:22.143Z,23.93
2022-12-09T05:36:52.497Z,22.73
2022-12-09T05:39:21.612Z,21.70
2022-12-09T05:41:50.639Z,21.60
2022-12-09T05:44:21.504Z,22.10
2022-12-09T05:46:50.765Z,20.80
2022-12-09T05:49:21.217Z,21.93
2022-12-09T05:51:50.869Z,19.37
2022-12-09T05:54:20.223Z,22.77
2022-12-09T05:56:51.386Z,21.53
2022-12-09T05:59:23.249Z,22.87
2022-12-09T06:01:53.903Z,22.43
2022-12-09T06:04:23.665Z,24.83
2022-12-09T06:06:53.444Z,28.13
2022-12-09T06:09:23.422Z,29.17
2022-12-09T06:11:53.006Z,27.67
2022-12-09T06:14:23.624Z,28.47
2022-12-09T06:16:53.338Z,26.03
2022-12-09T06:19:22.752Z,25.50
2022-12-09T06:21:52.744Z,23.03
2022-12-09T06:24:22.532Z,25.43
2022-12-09T06:26:55.040Z,26.33
2022-12-09T06:29:25.195Z,24.83
2022-12-09T06:31:54.903Z,23.97
2022-12-09T06:34:24.794Z,22.43
2022-12-09T06:36:54.262Z,22.57
2022-12-09T06:39:24.027Z,22.97
2022-12-09T06:41:53.436Z,22.63
2022-12-09T06:44:24.342Z,24.77
2022-12-09T06:46:55.382Z,22.43
2022-12-09T06:49:24.820Z,22.67
2022-12-09T06:51:54.070Z,22.80
2022-12-09T06:54:23.677Z,22.50
2022-12-09T06:56:53.225Z,21.83
2022-12-09T06:59:22.403Z,21.30
2022-12-09T07:01:51.902Z,21.50
2022-12-09T07:04:23.251Z,21.90
2022-12-09T07:06:52.722Z,22.57
2022-12-09T07:09:22.934Z,23.17
2022-12-09T07:11:52.209Z,24.33
2022-12-09T07:14:21.472Z,26.63
2022-12-09T07:16:51.456Z,24.73
2022-12-09T07:19:24.792Z,25.40
2022-12-09T07:21:54.611Z,25.30
2022-12-09T07:24:23.766Z,23.60
2022-12-09T07:26:53.983Z,25.83
2022-12-09T07:29:23.550Z,26.73
2022-12-09T07:31:53.086Z,34.23
2022-12-09T07:34:25.856Z,34.60
2022-12-09T07:36:55.443Z,37.77
2022-12-09T07:39:24.703Z,32.57
2022-12-09T07:41:55.050Z,31.30
2022-12-09T07:44:24.818Z,28.80
2022-12-09T07:46:55.132Z,26.50
2022-12-09T07:49:26.499Z,28.77
2022-12-09T07:51:55.613Z,28.30
2022-12-09T07:54:24.594Z,25.77
2022-12-09T07:56:53.630Z,29.50
2022-12-09T07:59:22.452Z,28.63
2022-12-09T08:01:51.599Z,30.13
2022-12-09T08:04:20.835Z,32.97
2022-12-09T08:06:51.825Z,33.97
2022-12-09T08:09:21.021Z,33.20
2022-12-09T08:11:50.285Z,32.50
2022-12-09T08:14:19.423Z,30.43
2022-12-09T08:16:48.551Z,29.87
2022-12-09T08:19:17.762Z,30.10
2022-12-09T08:21:52.870Z,28.13
2022-12-09T08:24:24.822Z,29.37
2022-12-09T08:26:54.199Z,28.40
2022-12-09T08:29:23.208Z,28.97
2022-12-09T08:31:52.434Z,28.70
2022-12-09T08:34:22.262Z,28.23
2022-12-09T08:36:52.272Z,26.83
2022-12-09T08:39:22.627Z,27.30
2022-12-09T08:41:52.984Z,27.97
2022-12-09T08:44:23.420Z,27.30
2022-12-09T08:46:53.859Z,27.53
2022-12-09T08:49:25.123Z,26.67
2022-12-09T08:51:55.495Z,27.27
2022-12-09T08:54:25.088Z,25.07
2022-12-09T08:56:57.043Z,24.30
2022-12-09T08:59:26.255Z,24.23
2022-12-09T09:01:55.559Z,24.60
2022-12-09T09:04:25.206Z,25.63
2022-12-09T09:06:54.885Z,25.07
2022-12-09T09:09:23.758Z,25.27
2022-12-09T09:11:55.382Z,24.47
2022-12-09T09:14:26.304Z,25.83
2022-12-09T09:16:55.441Z,25.87
2022-12-09T09:19:27.634Z,26.33
2022-12-09T09:21:57.686Z,25.27
2022-12-09T09:24:27.688Z,25.37
2022-12-09T09:26:58.213Z,24.87
2022-12-09T09:29:28.853Z,25.00
2022-12-09T09:31:58.500Z,27.33
2022-12-09T09:34:29.759Z,26.93
2022-12-09T09:36:59.961Z,28.63
2022-12-09T09:39:29.521Z,28.00
2022-12-09T09:42:08.166Z,26.80
2022-12-09T09:44:41.944Z,26.80
2022-12-09T09:47:17.756Z,26.07
2022-12-09T09:49:55.464Z,27.47
2022-12-09T09:52:26.952Z,27.70
2022-12-09T09:54:58.081Z,27.20
2022-12-09T09:57:34.649Z,28.50
2022-12-09T10:00:19.335Z,26.73
2022-12-09T10:02:59.868Z,26.53
2022-12-09T10:05:33.001Z,26.50
2022-12-09T10:08:20.879Z,27.23
2022-12-09T10:10:56.768Z,27.23
2022-12-09T10:13:49.940Z,27.37
2022-12-09T10:16:24.204Z,28.50
2022-12-09T10:19:08.933Z,27.47
2022-12-09T10:21:43.417Z,26.90
2022-12-09T10:24:24.396Z,27.80
2022-12-09T10:27:01.401Z,26.10
2022-12-09T10:29:58.339Z,27.30
2022-12-09T10:32:30.919Z,26.97
2022-12-09T10:35:00.573Z,27.47
2022-12-09T10:37:34.544Z,26.67
2022-12-09T10:40:16.867Z,26.37
2022-12-09T10:43:06.461Z,26.50
2022-12-09T10:46:16.915Z,25.50
2022-12-09T10:48:37.653Z,26.83
2022-12-09T10:51:12.265Z,25.47
2022-12-09T10:53:48.689Z,26.60
2022-12-09T10:56:25.195Z,25.77
2022-12-09T10:59:11.542Z,23.60
2022-12-09T11:01:54.750Z,23.90
2022-12-09T11:04:26.975Z,23.23
2022-12-09T11:07:00.820Z,23.27
2022-12-09T11:09:32.679Z,24.30
2022-12-09T11:12:05.829Z,23.73
2022-12-09T11:14:38.190Z,23.33
2022-12-09T11:17:17.802Z,23.67
2022-12-09T11:19:51.503Z,23.43
2022-12-09T11:22:33.871Z,22.20
2022-12-09T11:25:25.806Z,22.53
2022-12-09T11:27:57.721Z,22.70
2022-12-09T11:30:29.324Z,22.07
2022-12-09T11:33:28.267Z,22.30
2022-12-09T11:36:02.852Z,22.80
2022-12-09T11:38:35.595Z,22.83
2022-12-09T11:41:41.892Z,24.03
2022-12-09T11:44:25.899Z,22.53
2022-12-09T11:47:02.832Z,24.33
2022-12-09T11:49:37.753Z,23.73
2022-12-09T11:52:23.489Z,22.33
2022-12-09T11:55:02.080Z,24.93
2022-12-09T11:57:37.779Z,24.03
2022-12-09T12:00:15.939Z,23.87
2022-12-09T12:02:49.793Z,25.13
2022-12-09T12:05:24.746Z,24.37
2022-12-09T12:08:09.849Z,24.47
2022-12-09T12:10:42.526Z,24.87
2022-12-09T12:13:17.864Z,23.33
2022-12-09T12:15:52.256Z,22.17
2022-12-09T12:18:23.667Z,24.73
2022-12-09T12:21:11.046Z,23.83
2022-12-09T12:24:10.321Z,23.20
2022-12-09T12:26:45.204Z,22.60
2022-12-09T12:29:31.124Z,24.73
2022-12-09T12:32:11.210Z,22.77
2022-12-09T12:34:47.597Z,22.30
2022-12-09T12:37:31.628Z,20.40
2022-12-09T12:40:08.954Z,19.53
2022-12-09T12:43:12.349Z,20.00
2022-12-09T12:46:07.364Z,18.40
2022-12-09T12:48:48.393Z,18.90
2022-12-09T12:51:29.255Z,18.17
2022-12-09T12:54:07.358Z,17.90
2022-12-09T12:56:41.983Z,18.80
2022-12-09T12:59:19.462Z,18.40
2022-12-09T13:01:54.999Z,17.47
2022-12-09T13:04:28.673Z,17.73
2022-12-09T13:07:03.034Z,17.70
2022-12-09T13:09:39.690Z,18.80
2022-12-09T13:12:15.310Z,18.07
2022-12-09T13:14:52.789Z,18.30
2022-12-09T13:17:26.650Z,19.17
2022-12-09T13:20:00.225Z,19.57
2022-12-09T13:22:42.703Z,20.20
2022-12-09T13:25:22.962Z,17.83
2022-12-09T13:27:56.666Z,17.33
2022-12-09T13:30:34.077Z,17.17
2022-12-09T13:33:26.598Z,16.37
2022-12-09T13:36:06.241Z,15.80
2022-12-09T13:38:39.978Z,16.53
2022-12-09T13:41:53.277Z,17.27
2022-12-09T13:44:23.102Z,16.53
2022-12-09T13:46:52.653Z,16.10
2022-12-09T13:49:24.309Z,16.77
2022-12-09T13:51:55.251Z,19.97
2022-12-09T13:54:26.374Z,23.20
2022-12-09T13:57:14.641Z,22.00
2022-12-09T13:59:46.060Z,20.47
2022-12-09T14:02:23.518Z,20.27
2022-12-09T14:05:01.007Z,19.83
2022-12-09T14:07:35.795Z,21.53
2022-12-09T14:10:06.656Z,20.83
2022-12-09T14:13:19.362Z,19.90
2022-12-09T14:15:49.637Z,18.80
2022-12-09T14:18:32.666Z,20.60
2022-12-09T14:21:31.218Z,21.27
2022-12-09T14:24:42.252Z,20.20
2022-12-09T14:27:21.074Z,18.23
2022-12-09T14:29:57.576Z,18.00
2022-12-09T14:32:29.309Z,18.30
2022-12-09T14:35:08.595Z,18.20
2022-12-09T14:37:51.775Z,19.40
2022-12-09T14:41:01.020Z,18.97
2022-12-09T14:43:39.607Z,20.27
2022-12-09T14:46:22.393Z,19.93
2022-12-09T14:48:56.040Z,20.33
2022-12-09T14:51:28.653Z,22.93
2022-12-09T14:54:00.930Z,22.37
2022-12-09T14:56:32.013Z,24.30
2022-12-09T14:59:04.622Z,24.97
2022-12-09T15:04:32.934Z,23.70
2022-12-09T15:07:16.846Z,23.23
2022-12-09T15:09:53.919Z,23.70
2022-12-09T15:12:27.443Z,24.17
2022-12-09T15:14:59.185Z,25.10
2022-12-09T15:17:31.641Z,26.80
2022-12-09T15:20:04.243Z,26.17
2022-12-09T15:22:34.570Z,26.17
2022-12-09T15:25:04.649Z,24.83
2022-12-09T15:27:33.631Z,26.53
2022-12-09T15:30:15.067Z,24.80
2022-12-09T15:32:47.374Z,24.37
2022-12-09T15:35:19.295Z,23.87
2022-12-09T15:37:50.788Z,24.93
2022-12-09T15:40:22.439Z,24.23
2022-12-09T15:42:55.559Z,25.63
2022-12-09T15:45:27.457Z,26.00
2022-12-09T15:47:59.255Z,27.13
2022-12-09T15:50:34.466Z,29.77
2022-12-09T15:53:07.316Z,26.90
2022-12-09T15:55:41.262Z,27.37
2022-12-09T15:58:14.428Z,28.53
2022-12-09T16:00:49.159Z,29.33
2022-12-09T16:03:19.866Z,27.73
2022-12-09T16:05:56.292Z,29.40
2022-12-09T16:08:33.222Z,27.50
2022-12-09T16:11:02.980Z,29.20
2022-12-09T16:13:35.822Z,32.50
2022-12-09T16:16:28.438Z,32.97
2022-12-09T16:18:57.642Z,35.17
2022-12-09T16:21:35.123Z,36.03
2022-12-09T16:24:08.997Z,36.40
2022-12-09T16:26:41.060Z,35.30
2022-12-09T16:29:17.752Z,36.27
2022-12-09T16:31:51.578Z,34.53
2022-12-09T16:34:24.090Z,33.40
2022-12-09T16:36:58.157Z,34.23
2022-12-09T16:39:34.826Z,36.17
2022-12-09T16:42:03.821Z,34.83
2022-12-09T16:44:35.760Z,35.53
2022-12-09T16:47:13.434Z,33.50
2022-12-09T16:49:45.415Z,35.70
2022-12-09T16:52:18.424Z,35.70
2022-12-09T16:54:49.197Z,37.67
2022-12-09T16:57:20.400Z,35.33
2022-12-09T16:59:49.337Z,35.73
2022-12-09T17:02:24.451Z,37.83
2022-12-09T17:04:53.651Z,39.37
2022-12-09T17:07:23.808Z,40.23
2022-12-09T17:09:52.549Z,38.97
2022-12-09T17:12:21.177Z,38.83
2022-12-09T17:14:49.964Z,39.03
2022-12-09T17:17:18.737Z,39.20
2022-12-09T17:19:47.475Z,38.23
2022-12-09T17:22:17.567Z,38.67
2022-12-09T17:24:47.621Z,39.60
2022-12-09T17:27:16.910Z,37.33
2022-12-09T17:29:46.566Z,34.97
2022-12-09T17:32:15.369Z,34.20
2022-12-09T17:34:44.022Z,30.57
2022-12-09T17:37:12.617Z,30.43
2022-12-09T17:39:41.133Z,28.60
2022-12-09T17:42:11.709Z,30.37
2022-12-09T17:44:40.221Z,30.27
2022-12-09T17:47:08.895Z,30.93
2022-12-09T17:49:38.256Z,29.87
2022-12-09T17:52:07.083Z,29.00
2022-12-09T17:54:35.850Z,27.57
2022-12-09T17:57:04.494Z,28.03
2022-12-09T17:59:34.557Z,24.90
2022-12-09T18:02:03.659Z,24.93
2022-12-09T18:04:32.663Z,26.03
2022-12-09T18:07:01.304Z,24.60
2022-12-09T18:09:29.841Z,24.73
2022-12-09T18:11:58.489Z,26.73
2022-12-09T18:14:27.586Z,26.07
2022-12-09T18:16:57.582Z,27.83
2022-12-09T18:19:27.150Z,28.87
2022-12-09T18:21:56.169Z,28.50
2022-12-09T18:24:24.694Z,29.73
2022-12-09T18:26:53.450Z,30.33
2022-12-09T18:29:22.216Z,31.60
2022-12-09T18:31:56.571Z,32.30
2022-12-09T18:34:28.149Z,32.30
2022-12-09T18:36:57.014Z,32.77
2022-12-09T18:39:25.610Z,34.17
2022-12-09T18:41:54.180Z,33.77
2022-12-09T18:44:22.728Z,34.53
2022-12-09T18:46:51.861Z,36.60
2022-12-09T18:49:22.145Z,38.00
2022-12-09T18:51:53.460Z,36.97
2022-12-09T18:54:24.326Z,37.00
2022-12-09T18:56:53.161Z,40.03
2022-12-09T18:59:23.328Z,38.07
2022-12-09T19:01:52.893Z,37.33
2022-12-09T19:04:23.390Z,40.47
2022-12-09T19:06:55.281Z,38.67
2022-12-09T19:09:26.633Z,39.27
2022-12-09T19:11:55.343Z,39.87
2022-12-09T19:14:24.837Z,41.63
2022-12-09T19:16:54.234Z,39.53
2022-12-09T19:19:27.458Z,39.83
2022-12-09T19:21:57.929Z,38.50
2022-12-09T19:24:28.797Z,39.13
2022-12-09T19:26:58.350Z,38.27
2022-12-09T19:29:28.120Z,37.20
2022-12-09T19:31:58.475Z,37.87
2022-12-09T19:34:29.528Z,38.53
2022-12-09T19:37:01.750Z,40.33
2022-12-09T19:39:34.079Z,40.73
2022-12-09T19:42:05.133Z,42.63
2022-12-09T19:45:00.233Z,41.80
2022-12-09T19:47:23.182Z,40.67
2022-12-09T19:49:54.034Z,42.90
2022-12-09T19:52:23.938Z,40.90
2022-12-09T19:54:53.208Z,43.60
2022-12-09T19:57:22.428Z,43.30
2022-12-09T19:59:50.929Z,43.07
2022-12-09T20:02:19.620Z,44.40
2022-12-09T20:04:50.309Z,41.80
2022-12-09T20:07:19.775Z,44.73
2022-12-09T20:09:50.226Z,45.80
2022-12-09T20:12:19.223Z,44.60
2022-12-09T20:14:48.001Z,45.40
2022-12-09T20:17:17.586Z,45.77
2022-12-09T20:19:46.871Z,46.47
2022-12-09T20:22:15.895Z,46.13
2022-12-09T20:24:45.640Z,46.17
2022-12-09T20:27:15.705Z,47.93
2022-12-09T20:29:51.303Z,48.87
2022-12-09T20:32:24.933Z,48.73
2022-12-09T20:34:55.810Z,49.17
2022-12-09T20:37:24.772Z,48.53
2022-12-09T20:39:56.637Z,49.73
2022-12-09T20:42:28.121Z,50.27
2022-12-09T20:44:57.160Z,48.27
2022-12-09T20:47:25.907Z,49.53
2022-12-09T20:49:54.699Z,49.57
2022-12-09T20:52:23.667Z,48.83
2022-12-09T20:54:52.940Z,47.97
2022-12-09T20:57:21.476Z,48.63
2022-12-09T20:59:51.775Z,48.47
2022-12-09T21:02:20.536Z,52.20
2022-12-09T21:04:49.262Z,52.03
2022-12-09T21:07:18.308Z,50.17
2022-12-09T21:09:47.659Z,51.60
2022-12-09T21:12:16.796Z,50.73
2022-12-09T21:14:45.810Z,49.37
2022-12-09T21:17:16.038Z,51.53
2022-12-09T21:19:44.719Z,52.67
2022-12-09T21:22:15.868Z,52.17
2022-12-09T21:24:44.603Z,49.97
2022-12-09T21:27:13.446Z,49.57
2022-12-09T21:29:43.020Z,52.90
2022-12-09T21:32:11.683Z,52.77
2022-12-09T21:34:41.808Z,51.63
2022-12-09T21:37:12.013Z,51.90
2022-12-09T21:39:41.017Z,53.10
2022-12-09T21:42:11.860Z,52.70
2022-12-09T21:44:42.312Z,52.53
2022-12-09T21:47:10.972Z,52.03
2022-12-09T21:49:43.072Z,49.20
2022-12-09T21:52:11.597Z,52.40
2022-12-09T21:54:40.479Z,51.47
2022-12-09T21:57:09.010Z,52.30
2022-12-09T21:59:37.959Z,52.87
2022-12-09T22:02:07.142Z,49.00
2022-12-09T22:04:35.748Z,50.17
2022-12-09T22:07:06.077Z,50.90
2022-12-09T22:09:34.929Z,48.93
2022-12-09T22:12:03.773Z,50.13
2022-12-09T22:14:32.382Z,51.87
2022-12-09T22:17:02.528Z,52.43
2022-12-09T22:19:31.479Z,51.10
2022-12-09T22:22:04.593Z,52.47
2022-12-09T22:24:37.799Z,50.07
2022-12-09T22:27:07.279Z,49.67
2022-12-09T22:29:37.057Z,51.70
2022-12-09T22:32:06.191Z,47.13
2022-12-09T22:34:35.317Z,48.40
2022-12-09T22:37:27.688Z,49.73
2022-12-09T22:39:56.266Z,48.93
2022-12-09T22:42:25.530Z,47.90
2022-12-09T22:44:54.552Z,46.73
2022-12-09T22:47:24.434Z,47.47
2022-12-09T22:49:53.137Z,48.33
2022-12-09T22:52:22.012Z,46.90
2022-12-09T22:54:51.734Z,47.07
2022-12-09T22:57:22.471Z,46.33
2022-12-09T22:59:51.230Z,45.33
2022-12-09T23:02:20.484Z,44.43
2022-12-09T23:04:49.495Z,44.17
2022-12-09T23:07:18.165Z,43.53
2022-12-09T23:09:47.060Z,43.47
2022-12-09T23:12:15.969Z,41.40
2022-12-09T23:14:46.158Z,40.40
2022-12-09T23:17:15.133Z,38.97
2022-12-09T23:19:43.714Z,37.97
2022-12-09T23:22:12.516Z,36.53
2022-12-09T23:24:41.082Z,35.57
2022-12-09T23:27:10.265Z,32.37
2022-12-09T23:29:40.033Z,31.30
2022-12-09T23:32:10.092Z,31.47
2022-12-09T23:34:40.036Z,31.90
2022-12-09T23:37:08.590Z,31.63
2022-12-09T23:39:37.133Z,32.03
2022-12-09T23:42:06.138Z,29.67
2022-12-09T23:44:34.760Z,28.97
2022-12-09T23:47:03.654Z,30.67
2022-12-09T23:49:34.087Z,30.83
2022-12-09T23:52:03.278Z,29.37
2022-12-09T23:54:33.316Z,29.40
2022-12-09T23:57:02.004Z,30.17
2022-12-09T23:59:30.769Z,29.93
